logo
Search for airport 
image banner adimage banner adimage banner ad
image banner ad

LOKC - Ferlach-Glock

Located in District Klagenfurt Land, Austria

ICAO - , IATA -

Data provided by Airmate  

General information

Coordinates: N46°31'21" E14°17'50"
Elevation is 1539 feet MSL.
 
View others Airports in Tyrol

Operational data

Special qualification required
Current time UTC:
Current local time:
Weather at : LOWK - Klagenfurt ( 14 km )
METAR: LOWK 150820Z AUTO VRB02KT 9999 NCD 19/12 Q1012 NOSIG
TAF: TAF LOWK 150515Z 1506/1606 VRB04KT CAVOK TX25/1511Z TN12/1605Z BECMG 1510/1512 21012KT TEMPO 1517/1520 FEW060CB BECMG 1520/1522 VRB03KT TEMPO 1602/1604 02008KT
View NOTAMs / SUP AIP / TFR affecting this airport [VIEW]
Communications frequencies: [VIEW]

Runways:

Airport contact information

Address: District Klagenfurt Land Austria

Satellite view of LOKC